sensor_id;sensor_type;location;lat;lon;timestamp;temperature;humidity
39371;DHT22;25099;51.946;4.838;2022-10-26T00:00:05;11.70;99.90
39371;DHT22;25099;51.946;4.838;2022-10-26T00:02:31;11.70;99.90
39371;DHT22;25099;51.946;4.838;2022-10-26T00:04:57;11.70;99.90
39371;DHT22;25099;51.946;4.838;2022-10-26T00:07:23;11.70;99.90
39371;DHT22;25099;51.946;4.838;2022-10-26T00:09:48;11.70;99.90
39371;DHT22;25099;51.946;4.838;2022-10-26T00:12:14;11.70;99.90
39371;DHT22;25099;51.946;4.838;2022-10-26T00:14:39;11.80;99.90
39371;DHT22;25099;51.946;4.838;2022-10-26T00:17:05;11.80;99.90
39371;DHT22;25099;51.946;4.838;2022-10-26T00:19:34;11.70;99.90
39371;DHT22;25099;51.946;4.838;2022-10-26T00:21:59;11.70;99.90
39371;DHT22;25099;51.946;4.838;2022-10-26T00:24:25;11.70;99.90
39371;DHT22;25099;51.946;4.838;2022-10-26T00:26:50;11.60;99.90
39371;DHT22;25099;51.946;4.838;2022-10-26T00:29:16;11.70;99.90
39371;DHT22;25099;51.946;4.838;2022-10-26T00:31:42;11.60;99.90
39371;DHT22;25099;51.946;4.838;2022-10-26T00:34:10;11.60;99.90
39371;DHT22;25099;51.946;4.838;2022-10-26T00:36:35;11.60;99.90
39371;DHT22;25099;51.946;4.838;2022-10-26T00:39:01;11.60;99.90
39371;DHT22;25099;51.946;4.838;2022-10-26T00:41:30;11.60;99.90
39371;DHT22;25099;51.946;4.838;2022-10-26T00:43:56;11.60;99.90
39371;DHT22;25099;51.946;4.838;2022-10-26T00:46:29;11.70;99.90
39371;DHT22;25099;51.946;4.838;2022-10-26T00:48:59;11.60;99.90
39371;DHT22;25099;51.946;4.838;2022-10-26T00:51:50;11.70;99.90
39371;DHT22;25099;51.946;4.838;2022-10-26T00:54:18;11.70;99.90
39371;DHT22;25099;51.946;4.838;2022-10-26T00:56:46;11.70;99.90
39371;DHT22;25099;51.946;4.838;2022-10-26T00:59:14;11.70;99.90
39371;DHT22;25099;51.946;4.838;2022-10-26T01:01:42;11.70;99.90
39371;DHT22;25099;51.946;4.838;2022-10-26T01:04:08;11.70;99.90
39371;DHT22;25099;51.946;4.838;2022-10-26T01:06:35;11.70;99.90
39371;DHT22;25099;51.946;4.838;2022-10-26T01:09:02;11.70;99.90
39371;DHT22;25099;51.946;4.838;2022-10-26T01:11:28;11.80;99.90
39371;DHT22;25099;51.946;4.838;2022-10-26T01:13:54;11.70;99.90
39371;DHT22;25099;51.946;4.838;2022-10-26T01:22:07;11.70;99.90
39371;DHT22;25099;51.946;4.838;2022-10-26T01:27:33;11.70;99.90
39371;DHT22;25099;51.946;4.838;2022-10-26T01:30:21;11.60;99.90
39371;DHT22;25099;51.946;4.838;2022-10-26T01:38:57;11.60;99.90
39371;DHT22;25099;51.946;4.838;2022-10-26T01:41:49;11.60;99.90
39371;DHT22;25099;51.946;4.838;2022-10-26T01:44:24;11.60;99.90
39371;DHT22;25099;51.946;4.838;2022-10-26T01:46:53;11.90;99.90
39371;DHT22;25099;51.946;4.838;2022-10-26T01:49:34;11.60;99.90
39371;DHT22;25099;51.946;4.838;2022-10-26T01:52:03;11.70;99.90
39371;DHT22;25099;51.946;4.838;2022-10-26T01:54:29;11.70;99.90
39371;DHT22;25099;51.946;4.838;2022-10-26T01:56:59;11.70;99.90
39371;DHT22;25099;51.946;4.838;2022-10-26T02:02:43;11.70;99.90
39371;DHT22;25099;51.946;4.838;2022-10-26T02:08:17;11.70;99.90
39371;DHT22;25099;51.946;4.838;2022-10-26T02:11:19;11.70;99.90
39371;DHT22;25099;51.946;4.838;2022-10-26T02:14:03;11.80;99.90
39371;DHT22;25099;51.946;4.838;2022-10-26T02:19:25;11.80;99.90
39371;DHT22;25099;51.946;4.838;2022-10-26T02:22:00;11.80;99.90
39371;DHT22;25099;51.946;4.838;2022-10-26T02:24:28;11.80;99.90
39371;DHT22;25099;51.946;4.838;2022-10-26T02:26:57;11.70;99.90
39371;DHT22;25099;51.946;4.838;2022-10-26T02:29:25;11.70;99.90
39371;DHT22;25099;51.946;4.838;2022-10-26T02:31:52;11.70;99.90
39371;DHT22;25099;51.946;4.838;2022-10-26T02:34:22;11.70;99.90
39371;DHT22;25099;51.946;4.838;2022-10-26T02:36:50;11.70;99.90
39371;DHT22;25099;51.946;4.838;2022-10-26T02:39:18;11.70;99.90
39371;DHT22;25099;51.946;4.838;2022-10-26T02:41:46;11.70;99.90
39371;DHT22;25099;51.946;4.838;2022-10-26T02:46:42;11.70;99.90
39371;DHT22;25099;51.946;4.838;2022-10-26T02:49:08;11.70;99.90
39371;DHT22;25099;51.946;4.838;2022-10-26T02:51:39;11.70;99.90
39371;DHT22;25099;51.946;4.838;2022-10-26T02:54:23;11.70;99.90
39371;DHT22;25099;51.946;4.838;2022-10-26T02:56:55;11.70;99.90
39371;DHT22;25099;51.946;4.838;2022-10-26T02:59:26;11.80;99.90
39371;DHT22;25099;51.946;4.838;2022-10-26T03:01:53;11.80;99.90
39371;DHT22;25099;51.946;4.838;2022-10-26T03:04:20;11.80;99.90
39371;DHT22;25099;51.946;4.838;2022-10-26T03:06:53;11.80;99.90
39371;DHT22;25099;51.946;4.838;2022-10-26T03:09:19;11.80;99.90
39371;DHT22;25099;51.946;4.838;2022-10-26T03:11:44;11.80;99.90
39371;DHT22;25099;51.946;4.838;2022-10-26T03:14:10;12.40;99.90
39371;DHT22;25099;51.946;4.838;2022-10-26T03:16:35;11.80;99.90
39371;DHT22;25099;51.946;4.838;2022-10-26T03:19:01;11.80;99.90
39371;DHT22;25099;51.946;4.838;2022-10-26T03:21:26;11.80;99.90
39371;DHT22;25099;51.946;4.838;2022-10-26T03:23:53;11.80;99.90
39371;DHT22;25099;51.946;4.838;2022-10-26T03:26:19;11.80;99.90
39371;DHT22;25099;51.946;4.838;2022-10-26T03:28:44;11.80;99.90
39371;DHT22;25099;51.946;4.838;2022-10-26T03:31:10;11.90;99.90
39371;DHT22;25099;51.946;4.838;2022-10-26T03:33:36;11.90;99.90
39371;DHT22;25099;51.946;4.838;2022-10-26T03:36:01;11.80;99.90
39371;DHT22;25099;51.946;4.838;2022-10-26T03:38:27;11.80;99.90
39371;DHT22;25099;51.946;4.838;2022-10-26T03:40:55;11.80;99.90
39371;DHT22;25099;51.946;4.838;2022-10-26T03:43:20;11.80;99.90
39371;DHT22;25099;51.946;4.838;2022-10-26T03:45:46;11.80;99.90
39371;DHT22;25099;51.946;4.838;2022-10-26T03:48:12;11.80;99.90
39371;DHT22;25099;51.946;4.838;2022-10-26T03:50:37;11.80;99.90
39371;DHT22;25099;51.946;4.838;2022-10-26T03:53:03;11.80;99.90
39371;DHT22;25099;51.946;4.838;2022-10-26T03:55:29;11.80;99.90
39371;DHT22;25099;51.946;4.838;2022-10-26T03:57:54;11.90;99.90
39371;DHT22;25099;51.946;4.838;2022-10-26T04:00:20;11.90;99.90
39371;DHT22;25099;51.946;4.838;2022-10-26T04:02:53;11.80;99.90
39371;DHT22;25099;51.946;4.838;2022-10-26T04:05:19;11.90;99.90
39371;DHT22;25099;51.946;4.838;2022-10-26T04:07:51;11.90;99.90
39371;DHT22;25099;51.946;4.838;2022-10-26T04:10:17;11.90;99.90
39371;DHT22;25099;51.946;4.838;2022-10-26T04:12:42;11.90;99.90
39371;DHT22;25099;51.946;4.838;2022-10-26T04:15:08;12.00;99.90
39371;DHT22;25099;51.946;4.838;2022-10-26T04:17:34;11.90;99.90
39371;DHT22;25099;51.946;4.838;2022-10-26T04:20:00;12.00;99.90
39371;DHT22;25099;51.946;4.838;2022-10-26T04:22:25;12.00;99.90
39371;DHT22;25099;51.946;4.838;2022-10-26T04:24:51;11.90;99.90
39371;DHT22;25099;51.946;4.838;2022-10-26T04:27:16;12.00;99.90
39371;DHT22;25099;51.946;4.838;2022-10-26T04:29:42;12.00;99.90
39371;DHT22;25099;51.946;4.838;2022-10-26T04:32:08;12.00;99.90
39371;DHT22;25099;51.946;4.838;2022-10-26T04:34:33;12.00;99.90
39371;DHT22;25099;51.946;4.838;2022-10-26T04:36:59;12.00;99.90
39371;DHT22;25099;51.946;4.838;2022-10-26T04:39:25;12.00;99.90
39371;DHT22;25099;51.946;4.838;2022-10-26T04:41:50;11.90;99.90
39371;DHT22;25099;51.946;4.838;2022-10-26T04:44:17;12.00;99.90
39371;DHT22;25099;51.946;4.838;2022-10-26T04:46:43;12.00;99.90
39371;DHT22;25099;51.946;4.838;2022-10-26T04:49:08;12.00;99.90
39371;DHT22;25099;51.946;4.838;2022-10-26T04:51:34;12.00;99.90
39371;DHT22;25099;51.946;4.838;2022-10-26T04:53:59;12.00;99.90
39371;DHT22;25099;51.946;4.838;2022-10-26T04:56:26;12.00;99.90
39371;DHT22;25099;51.946;4.838;2022-10-26T04:58:54;12.00;99.90
39371;DHT22;25099;51.946;4.838;2022-10-26T05:01:20;12.00;99.90
39371;DHT22;25099;51.946;4.838;2022-10-26T05:03:50;12.00;99.90
39371;DHT22;25099;51.946;4.838;2022-10-26T05:06:16;12.00;99.90
39371;DHT22;25099;51.946;4.838;2022-10-26T05:08:42;12.10;99.90
39371;DHT22;25099;51.946;4.838;2022-10-26T05:11:07;12.10;99.90
39371;DHT22;25099;51.946;4.838;2022-10-26T05:13:33;12.10;99.90
39371;DHT22;25099;51.946;4.838;2022-10-26T05:15:58;12.20;99.90
39371;DHT22;25099;51.946;4.838;2022-10-26T05:18:24;12.20;99.90
39371;DHT22;25099;51.946;4.838;2022-10-26T05:20:53;12.20;99.90
39371;DHT22;25099;51.946;4.838;2022-10-26T05:23:19;12.20;99.90
39371;DHT22;25099;51.946;4.838;2022-10-26T05:25:45;12.20;99.90
39371;DHT22;25099;51.946;4.838;2022-10-26T05:28:12;12.30;99.90
39371;DHT22;25099;51.946;4.838;2022-10-26T05:30:40;12.30;99.90
39371;DHT22;25099;51.946;4.838;2022-10-26T05:33:07;12.30;99.90
39371;DHT22;25099;51.946;4.838;2022-10-26T05:35:32;12.30;99.90
39371;DHT22;25099;51.946;4.838;2022-10-26T05:37:58;12.30;99.90
39371;DHT22;25099;51.946;4.838;2022-10-26T05:40:24;12.40;99.90
39371;DHT22;25099;51.946;4.838;2022-10-26T05:42:50;12.30;99.90
39371;DHT22;25099;51.946;4.838;2022-10-26T05:45:16;12.40;99.90
39371;DHT22;25099;51.946;4.838;2022-10-26T05:47:43;12.40;99.90
39371;DHT22;25099;51.946;4.838;2022-10-26T05:50:11;12.40;99.90
39371;DHT22;25099;51.946;4.838;2022-10-26T05:52:41;12.40;99.90
39371;DHT22;25099;51.946;4.838;2022-10-26T05:55:08;12.40;99.90
39371;DHT22;25099;51.946;4.838;2022-10-26T05:57:35;12.40;99.90
39371;DHT22;25099;51.946;4.838;2022-10-26T06:00:24;12.40;99.90
39371;DHT22;25099;51.946;4.838;2022-10-26T06:03:00;12.40;99.90
39371;DHT22;25099;51.946;4.838;2022-10-26T06:05:32;12.40;99.90
39371;DHT22;25099;51.946;4.838;2022-10-26T06:08:01;12.40;99.90
39371;DHT22;25099;51.946;4.838;2022-10-26T06:10:27;12.40;99.90
39371;DHT22;25099;51.946;4.838;2022-10-26T06:12:53;12.40;99.90
39371;DHT22;25099;51.946;4.838;2022-10-26T06:15:20;12.40;99.90
39371;DHT22;25099;51.946;4.838;2022-10-26T06:18:02;12.40;99.90
39371;DHT22;25099;51.946;4.838;2022-10-26T06:20:58;12.40;99.90
39371;DHT22;25099;51.946;4.838;2022-10-26T06:23:43;12.40;99.90
39371;DHT22;25099;51.946;4.838;2022-10-26T06:26:15;12.40;99.90
39371;DHT22;25099;51.946;4.838;2022-10-26T06:28:53;12.50;99.90
39371;DHT22;25099;51.946;4.838;2022-10-26T06:31:23;12.50;99.90
39371;DHT22;25099;51.946;4.838;2022-10-26T06:33:53;12.50;99.90
39371;DHT22;25099;51.946;4.838;2022-10-26T06:36:23;12.50;99.90
39371;DHT22;25099;51.946;4.838;2022-10-26T06:38:53;12.50;99.90
39371;DHT22;25099;51.946;4.838;2022-10-26T06:41:21;12.50;99.90
39371;DHT22;25099;51.946;4.838;2022-10-26T06:43:47;12.60;99.90
39371;DHT22;25099;51.946;4.838;2022-10-26T06:46:21;12.50;99.90
39371;DHT22;25099;51.946;4.838;2022-10-26T06:54:52;12.50;99.90
39371;DHT22;25099;51.946;4.838;2022-10-26T06:57:23;12.50;99.90
39371;DHT22;25099;51.946;4.838;2022-10-26T07:02:19;12.50;99.90
39371;DHT22;25099;51.946;4.838;2022-10-26T07:04:45;12.50;99.90
39371;DHT22;25099;51.946;4.838;2022-10-26T07:07:22;12.50;99.90
39371;DHT22;25099;51.946;4.838;2022-10-26T07:09:49;12.50;99.90
39371;DHT22;25099;51.946;4.838;2022-10-26T07:12:14;12.50;99.90
39371;DHT22;25099;51.946;4.838;2022-10-26T07:14:40;12.40;99.90
39371;DHT22;25099;51.946;4.838;2022-10-26T07:17:06;12.50;99.90
39371;DHT22;25099;51.946;4.838;2022-10-26T07:19:32;12.50;99.90
39371;DHT22;25099;51.946;4.838;2022-10-26T07:21:58;12.50;99.90
39371;DHT22;25099;51.946;4.838;2022-10-26T07:24:24;12.50;99.90
39371;DHT22;25099;51.946;4.838;2022-10-26T07:26:53;12.50;99.90
39371;DHT22;25099;51.946;4.838;2022-10-26T07:29:20;12.60;99.90
39371;DHT22;25099;51.946;4.838;2022-10-26T07:31:45;12.60;99.90
39371;DHT22;25099;51.946;4.838;2022-10-26T07:34:12;12.80;99.90
39371;DHT22;25099;51.946;4.838;2022-10-26T07:36:38;12.70;99.90
39371;DHT22;25099;51.946;4.838;2022-10-26T07:39:04;12.70;99.90
39371;DHT22;25099;51.946;4.838;2022-10-26T07:41:30;12.90;99.90
39371;DHT22;25099;51.946;4.838;2022-10-26T07:43:56;12.90;99.90
39371;DHT22;25099;51.946;4.838;2022-10-26T07:46:22;12.90;99.90
39371;DHT22;25099;51.946;4.838;2022-10-26T07:48:49;13.00;99.90
39371;DHT22;25099;51.946;4.838;2022-10-26T07:51:15;13.00;99.90
39371;DHT22;25099;51.946;4.838;2022-10-26T07:53:40;13.00;99.90
39371;DHT22;25099;51.946;4.838;2022-10-26T07:56:06;13.10;99.90
39371;DHT22;25099;51.946;4.838;2022-10-26T07:58:32;13.20;99.90
39371;DHT22;25099;51.946;4.838;2022-10-26T08:01:08;13.20;99.90
39371;DHT22;25099;51.946;4.838;2022-10-26T08:03:33;13.30;99.90
39371;DHT22;25099;51.946;4.838;2022-10-26T08:05:59;13.30;99.90
39371;DHT22;25099;51.946;4.838;2022-10-26T08:08:25;13.30;99.90
39371;DHT22;25099;51.946;4.838;2022-10-26T08:10:50;13.30;99.90
39371;DHT22;25099;51.946;4.838;2022-10-26T08:13:16;13.40;99.90
39371;DHT22;25099;51.946;4.838;2022-10-26T08:15:42;13.40;99.90
39371;DHT22;25099;51.946;4.838;2022-10-26T08:18:08;13.50;99.90
39371;DHT22;25099;51.946;4.838;2022-10-26T08:20:33;13.50;99.90
39371;DHT22;25099;51.946;4.838;2022-10-26T08:22:59;13.60;99.90
39371;DHT22;25099;51.946;4.838;2022-10-26T08:25:26;13.70;99.90
39371;DHT22;25099;51.946;4.838;2022-10-26T08:27:52;13.80;99.90
39371;DHT22;25099;51.946;4.838;2022-10-26T08:30:18;13.80;99.90
39371;DHT22;25099;51.946;4.838;2022-10-26T08:32:47;13.90;99.90
39371;DHT22;25099;51.946;4.838;2022-10-26T08:35:12;14.00;99.90
39371;DHT22;25099;51.946;4.838;2022-10-26T08:37:38;14.10;99.90
39371;DHT22;25099;51.946;4.838;2022-10-26T08:40:03;14.10;99.90
39371;DHT22;25099;51.946;4.838;2022-10-26T08:42:33;14.20;99.90
39371;DHT22;25099;51.946;4.838;2022-10-26T08:45:07;14.30;99.90
39371;DHT22;25099;51.946;4.838;2022-10-26T08:47:43;14.30;99.90
39371;DHT22;25099;51.946;4.838;2022-10-26T08:50:26;14.40;99.90
39371;DHT22;25099;51.946;4.838;2022-10-26T08:53:06;14.50;99.90
39371;DHT22;25099;51.946;4.838;2022-10-26T08:55:44;14.60;99.90
39371;DHT22;25099;51.946;4.838;2022-10-26T08:58:15;14.70;99.90
39371;DHT22;25099;51.946;4.838;2022-10-26T09:00:43;14.80;99.90
39371;DHT22;25099;51.946;4.838;2022-10-26T09:03:14;14.90;99.90
39371;DHT22;25099;51.946;4.838;2022-10-26T09:05:56;14.90;99.90
39371;DHT22;25099;51.946;4.838;2022-10-26T09:08:37;15.10;99.90
39371;DHT22;25099;51.946;4.838;2022-10-26T09:17:17;15.40;99.90
39371;DHT22;25099;51.946;4.838;2022-10-26T09:25:57;15.60;99.90
39371;DHT22;25099;51.946;4.838;2022-10-26T09:28:26;15.60;99.90
39371;DHT22;25099;51.946;4.838;2022-10-26T09:30:52;15.60;99.90
39371;DHT22;25099;51.946;4.838;2022-10-26T09:33:23;15.70;99.90
39371;DHT22;25099;51.946;4.838;2022-10-26T09:36:02;15.80;99.90
39371;DHT22;25099;51.946;4.838;2022-10-26T09:44:11;15.90;99.90
39371;DHT22;25099;51.946;4.838;2022-10-26T09:46:52;16.00;99.90
39371;DHT22;25099;51.946;4.838;2022-10-26T09:49:20;16.10;99.90
39371;DHT22;25099;51.946;4.838;2022-10-26T09:51:48;16.20;99.90
39371;DHT22;25099;51.946;4.838;2022-10-26T09:54:15;16.20;99.90
39371;DHT22;25099;51.946;4.838;2022-10-26T09:56:43;16.40;99.90
39371;DHT22;25099;51.946;4.838;2022-10-26T09:59:10;16.50;99.90
39371;DHT22;25099;51.946;4.838;2022-10-26T10:01:37;16.60;99.90
39371;DHT22;25099;51.946;4.838;2022-10-26T10:06:38;16.80;99.90
39371;DHT22;25099;51.946;4.838;2022-10-26T10:09:10;16.80;99.90
39371;DHT22;25099;51.946;4.838;2022-10-26T10:11:44;16.90;99.90
39371;DHT22;25099;51.946;4.838;2022-10-26T10:14:15;17.00;99.90
39371;DHT22;25099;51.946;4.838;2022-10-26T10:16:52;17.00;99.90
39371;DHT22;25099;51.946;4.838;2022-10-26T10:21:55;17.20;99.90
39371;DHT22;25099;51.946;4.838;2022-10-26T10:24:23;17.20;99.90
39371;DHT22;25099;51.946;4.838;2022-10-26T10:29:33;17.40;99.90
39371;DHT22;25099;51.946;4.838;2022-10-26T10:32:01;17.40;99.90
39371;DHT22;25099;51.946;4.838;2022-10-26T10:34:32;17.40;99.90
39371;DHT22;25099;51.946;4.838;2022-10-26T10:36:59;17.40;99.90
39371;DHT22;25099;51.946;4.838;2022-10-26T10:39:33;17.40;99.90
39371;DHT22;25099;51.946;4.838;2022-10-26T10:42:00;17.40;99.90
39371;DHT22;25099;51.946;4.838;2022-10-26T10:44:28;17.30;99.90
39371;DHT22;25099;51.946;4.838;2022-10-26T10:47:05;17.30;99.90
39371;DHT22;25099;51.946;4.838;2022-10-26T10:49:31;17.30;99.90
39371;DHT22;25099;51.946;4.838;2022-10-26T10:52:02;17.20;99.90
39371;DHT22;25099;51.946;4.838;2022-10-26T10:54:31;17.30;99.90
39371;DHT22;25099;51.946;4.838;2022-10-26T11:05:54;17.40;99.90
39371;DHT22;25099;51.946;4.838;2022-10-26T11:13:41;17.70;99.90
39371;DHT22;25099;51.946;4.838;2022-10-26T11:16:15;17.70;99.90
39371;DHT22;25099;51.946;4.838;2022-10-26T11:18:49;17.70;99.90
39371;DHT22;25099;51.946;4.838;2022-10-26T11:21:24;17.70;99.90
39371;DHT22;25099;51.946;4.838;2022-10-26T11:32:27;18.10;99.90
39371;DHT22;25099;51.946;4.838;2022-10-26T11:37:41;18.10;99.90
39371;DHT22;25099;51.946;4.838;2022-10-26T11:40:43;18.10;99.90
39371;DHT22;25099;51.946;4.838;2022-10-26T11:46:12;18.20;99.90
39371;DHT22;25099;51.946;4.838;2022-10-26T11:48:54;18.20;99.90
39371;DHT22;25099;51.946;4.838;2022-10-26T11:54:39;18.20;99.90
39371;DHT22;25099;51.946;4.838;2022-10-26T11:57:08;18.30;99.90
39371;DHT22;25099;51.946;4.838;2022-10-26T11:59:43;18.40;99.90
39371;DHT22;25099;51.946;4.838;2022-10-26T12:02:13;18.40;99.90
39371;DHT22;25099;51.946;4.838;2022-10-26T12:04:40;18.40;99.90
39371;DHT22;25099;51.946;4.838;2022-10-26T12:07:15;18.30;99.90
39371;DHT22;25099;51.946;4.838;2022-10-26T12:09:44;18.50;99.90
39371;DHT22;25099;51.946;4.838;2022-10-26T12:12:18;18.60;99.90
39371;DHT22;25099;51.946;4.838;2022-10-26T12:15:02;18.50;99.90
39371;DHT22;25099;51.946;4.838;2022-10-26T12:17:35;18.50;99.90
39371;DHT22;25099;51.946;4.838;2022-10-26T12:20:23;18.50;99.90
39371;DHT22;25099;51.946;4.838;2022-10-26T12:22:57;18.50;99.90
39371;DHT22;25099;51.946;4.838;2022-10-26T12:25:23;18.60;99.90
39371;DHT22;25099;51.946;4.838;2022-10-26T12:27:52;18.70;99.90
39371;DHT22;25099;51.946;4.838;2022-10-26T12:32:48;18.70;99.90
39371;DHT22;25099;51.946;4.838;2022-10-26T12:37:59;18.80;99.90
39371;DHT22;25099;51.946;4.838;2022-10-26T12:40:36;18.80;99.90
39371;DHT22;25099;51.946;4.838;2022-10-26T12:45:38;18.90;99.90
39371;DHT22;25099;51.946;4.838;2022-10-26T12:48:23;19.00;99.90
39371;DHT22;25099;51.946;4.838;2022-10-26T12:50:50;19.10;99.90
39371;DHT22;25099;51.946;4.838;2022-10-26T12:53:18;19.10;99.90
39371;DHT22;25099;51.946;4.838;2022-10-26T12:58:17;19.20;99.90
39371;DHT22;25099;51.946;4.838;2022-10-26T13:08:42;19.40;99.90
39371;DHT22;25099;51.946;4.838;2022-10-26T13:13:44;19.40;99.90
39371;DHT22;25099;51.946;4.838;2022-10-26T13:16:18;19.40;99.90
39371;DHT22;25099;51.946;4.838;2022-10-26T13:18:45;19.40;99.90
39371;DHT22;25099;51.946;4.838;2022-10-26T13:21:18;19.50;99.90
39371;DHT22;25099;51.946;4.838;2022-10-26T13:26:20;19.50;99.90
39371;DHT22;25099;51.946;4.838;2022-10-26T13:28:53;19.60;99.90
39371;DHT22;25099;51.946;4.838;2022-10-26T13:34:23;19.70;99.90
39371;DHT22;25099;51.946;4.838;2022-10-26T13:39:34;19.80;99.90
39371;DHT22;25099;51.946;4.838;2022-10-26T13:42:02;19.80;99.90
39371;DHT22;25099;51.946;4.838;2022-10-26T13:47:42;19.70;99.90
39371;DHT22;25099;51.946;4.838;2022-10-26T13:50:17;19.80;99.90
39371;DHT22;25099;51.946;4.838;2022-10-26T13:52:49;19.80;99.90
39371;DHT22;25099;51.946;4.838;2022-10-26T13:55:41;19.80;99.90
39371;DHT22;25099;51.946;4.838;2022-10-26T13:58:40;19.70;99.90
39371;DHT22;25099;51.946;4.838;2022-10-26T14:03:36;19.70;99.90
39371;DHT22;25099;51.946;4.838;2022-10-26T14:06:27;19.70;99.90
39371;DHT22;25099;51.946;4.838;2022-10-26T14:08:56;19.60;99.90
39371;DHT22;25099;51.946;4.838;2022-10-26T14:12:01;19.60;99.90
39371;DHT22;25099;51.946;4.838;2022-10-26T14:14:31;19.50;99.90
39371;DHT22;25099;51.946;4.838;2022-10-26T14:16:58;19.50;99.90
39371;DHT22;25099;51.946;4.838;2022-10-26T14:19:31;19.40;99.90
39371;DHT22;25099;51.946;4.838;2022-10-26T14:21:57;19.40;99.90
39371;DHT22;25099;51.946;4.838;2022-10-26T14:24:31;19.40;99.90
39371;DHT22;25099;51.946;4.838;2022-10-26T14:26:58;19.30;99.90
39371;DHT22;25099;51.946;4.838;2022-10-26T14:29:30;19.30;99.90
39371;DHT22;25099;51.946;4.838;2022-10-26T14:31:57;19.30;99.90
39371;DHT22;25099;51.946;4.838;2022-10-26T14:34:23;19.30;99.90
39371;DHT22;25099;51.946;4.838;2022-10-26T14:36:56;19.30;99.90
39371;DHT22;25099;51.946;4.838;2022-10-26T14:39:36;19.30;99.90
39371;DHT22;25099;51.946;4.838;2022-10-26T14:42:28;19.20;99.90
39371;DHT22;25099;51.946;4.838;2022-10-26T14:44:55;19.20;99.90
39371;DHT22;25099;51.946;4.838;2022-10-26T14:47:41;19.20;99.90
39371;DHT22;25099;51.946;4.838;2022-10-26T14:50:28;19.20;99.90
39371;DHT22;25099;51.946;4.838;2022-10-26T14:53:15;19.30;99.90
39371;DHT22;25099;51.946;4.838;2022-10-26T14:55:47;19.40;99.90
39371;DHT22;25099;51.946;4.838;2022-10-26T14:58:30;19.40;99.90
39371;DHT22;25099;51.946;4.838;2022-10-26T15:06:38;19.30;99.90
39371;DHT22;25099;51.946;4.838;2022-10-26T15:09:03;19.30;99.90
39371;DHT22;25099;51.946;4.838;2022-10-26T15:11:32;19.20;99.90
39371;DHT22;25099;51.946;4.838;2022-10-26T15:13:58;19.10;99.90
39371;DHT22;25099;51.946;4.838;2022-10-26T15:16:34;19.00;99.90
39371;DHT22;25099;51.946;4.838;2022-10-26T15:19:10;19.00;99.90
39371;DHT22;25099;51.946;4.838;2022-10-26T15:21:45;18.90;99.90
39371;DHT22;25099;51.946;4.838;2022-10-26T15:24:31;18.90;99.90
39371;DHT22;25099;51.946;4.838;2022-10-26T15:26:57;18.90;99.90
39371;DHT22;25099;51.946;4.838;2022-10-26T15:29:34;18.80;99.90
39371;DHT22;25099;51.946;4.838;2022-10-26T15:32:00;18.70;99.90
39371;DHT22;25099;51.946;4.838;2022-10-26T15:34:25;18.70;99.90
39371;DHT22;25099;51.946;4.838;2022-10-26T15:36:51;18.70;99.90
39371;DHT22;25099;51.946;4.838;2022-10-26T15:39:17;18.70;99.90
39371;DHT22;25099;51.946;4.838;2022-10-26T15:41:44;18.70;99.90
39371;DHT22;25099;51.946;4.838;2022-10-26T15:44:17;18.70;99.90
39371;DHT22;25099;51.946;4.838;2022-10-26T15:46:46;18.60;99.90
39371;DHT22;25099;51.946;4.838;2022-10-26T15:49:16;18.60;99.90
39371;DHT22;25099;51.946;4.838;2022-10-26T15:51:44;18.60;99.90
39371;DHT22;25099;51.946;4.838;2022-10-26T15:54:10;18.60;99.90
39371;DHT22;25099;51.946;4.838;2022-10-26T15:56:35;18.60;99.90
39371;DHT22;25099;51.946;4.838;2022-10-26T15:59:15;18.50;99.90
39371;DHT22;25099;51.946;4.838;2022-10-26T16:01:41;18.40;99.90
39371;DHT22;25099;51.946;4.838;2022-10-26T16:04:08;18.30;99.90
39371;DHT22;25099;51.946;4.838;2022-10-26T16:06:35;18.30;99.90
39371;DHT22;25099;51.946;4.838;2022-10-26T16:09:05;18.20;99.90
39371;DHT22;25099;51.946;4.838;2022-10-26T16:11:32;18.00;99.90
39371;DHT22;25099;51.946;4.838;2022-10-26T16:13:58;17.90;99.90
39371;DHT22;25099;51.946;4.838;2022-10-26T16:16:24;17.90;99.90
39371;DHT22;25099;51.946;4.838;2022-10-26T16:18:53;17.70;99.90
39371;DHT22;25099;51.946;4.838;2022-10-26T16:21:20;17.70;99.90
39371;DHT22;25099;51.946;4.838;2022-10-26T16:23:50;17.60;99.90
39371;DHT22;25099;51.946;4.838;2022-10-26T16:26:17;17.60;99.90
39371;DHT22;25099;51.946;4.838;2022-10-26T16:28:43;17.60;99.90
39371;DHT22;25099;51.946;4.838;2022-10-26T16:31:14;17.60;99.90
39371;DHT22;25099;51.946;4.838;2022-10-26T16:33:39;17.50;99.90
39371;DHT22;25099;51.946;4.838;2022-10-26T16:36:06;17.40;99.90
39371;DHT22;25099;51.946;4.838;2022-10-26T16:38:32;17.40;99.90
39371;DHT22;25099;51.946;4.838;2022-10-26T16:43:29;17.20;99.90
39371;DHT22;25099;51.946;4.838;2022-10-26T16:45:56;17.10;99.90
39371;DHT22;25099;51.946;4.838;2022-10-26T16:48:25;17.10;99.90
39371;DHT22;25099;51.946;4.838;2022-10-26T16:50:53;17.00;99.90
39371;DHT22;25099;51.946;4.838;2022-10-26T16:53:19;16.90;99.90
39371;DHT22;25099;51.946;4.838;2022-10-26T16:55:44;16.90;99.90
39371;DHT22;25099;51.946;4.838;2022-10-26T16:58:10;16.90;99.90
39371;DHT22;25099;51.946;4.838;2022-10-26T17:00:36;16.80;99.90
39371;DHT22;25099;51.946;4.838;2022-10-26T17:03:02;16.80;99.90
39371;DHT22;25099;51.946;4.838;2022-10-26T17:05:28;16.80;99.90
39371;DHT22;25099;51.946;4.838;2022-10-26T17:07:55;16.70;99.90
39371;DHT22;25099;51.946;4.838;2022-10-26T17:10:20;16.80;99.90
39371;DHT22;25099;51.946;4.838;2022-10-26T17:12:46;16.80;99.90
39371;DHT22;25099;51.946;4.838;2022-10-26T17:15:12;16.70;99.90
39371;DHT22;25099;51.946;4.838;2022-10-26T17:17:37;16.70;99.90
39371;DHT22;25099;51.946;4.838;2022-10-26T17:20:03;16.70;99.90
39371;DHT22;25099;51.946;4.838;2022-10-26T17:22:29;16.70;99.90
39371;DHT22;25099;51.946;4.838;2022-10-26T17:24:54;16.60;99.90
39371;DHT22;25099;51.946;4.838;2022-10-26T17:27:20;16.50;99.90
39371;DHT22;25099;51.946;4.838;2022-10-26T17:29:47;16.50;99.90
39371;DHT22;25099;51.946;4.838;2022-10-26T17:32:14;16.50;99.90
39371;DHT22;25099;51.946;4.838;2022-10-26T17:34:40;16.40;99.90
39371;DHT22;25099;51.946;4.838;2022-10-26T17:37:06;16.40;99.90
39371;DHT22;25099;51.946;4.838;2022-10-26T17:39:31;16.30;99.90
39371;DHT22;25099;51.946;4.838;2022-10-26T17:42:03;16.30;99.90
39371;DHT22;25099;51.946;4.838;2022-10-26T17:44:29;16.30;99.90
39371;DHT22;25099;51.946;4.838;2022-10-26T17:46:54;16.20;99.90
39371;DHT22;25099;51.946;4.838;2022-10-26T17:49:20;16.20;99.90
39371;DHT22;25099;51.946;4.838;2022-10-26T17:51:45;16.10;99.90
39371;DHT22;25099;51.946;4.838;2022-10-26T17:54:11;16.10;99.90
39371;DHT22;25099;51.946;4.838;2022-10-26T17:56:36;16.00;99.90
39371;DHT22;25099;51.946;4.838;2022-10-26T17:59:08;16.00;99.90